createdAt,value
2023-02-13T00:00:28.052Z,11.73
2023-02-13T00:02:52.085Z,12.40
2023-02-13T00:05:15.637Z,12.18
2023-02-13T00:07:39.032Z,11.88
2023-02-13T00:10:02.339Z,14.02
2023-02-13T00:12:26.953Z,13.30
2023-02-13T00:14:50.325Z,11.75
2023-02-13T00:17:13.693Z,12.70
2023-02-13T00:19:37.115Z,13.15
2023-02-13T00:22:00.600Z,12.75
2023-02-13T00:24:24.229Z,12.35
2023-02-13T00:26:47.462Z,14.90
2023-02-13T00:29:12.213Z,13.02
2023-02-13T00:31:35.550Z,15.23
2023-02-13T00:33:58.930Z,14.80
2023-02-13T00:36:25.190Z,13.77
2023-02-13T00:38:48.979Z,14.05
2023-02-13T00:41:12.550Z,13.07
2023-02-13T00:43:36.868Z,15.68
2023-02-13T00:46:02.022Z,12.65
2023-02-13T00:48:25.732Z,13.85
2023-02-13T00:50:49.345Z,15.20
2023-02-13T00:53:12.764Z,16.50
2023-02-13T00:55:36.247Z,17.83
2023-02-13T00:57:59.627Z,17.17
2023-02-13T01:00:23.225Z,16.42
2023-02-13T01:02:48.007Z,16.60
2023-02-13T01:05:11.291Z,15.43
2023-02-13T01:07:34.641Z,14.43
2023-02-13T01:09:57.976Z,15.65
2023-02-13T01:12:23.844Z,17.02
2023-02-13T01:14:47.106Z,17.02
2023-02-13T01:17:10.363Z,16.00
2023-02-13T01:19:35.576Z,15.13
2023-02-13T01:21:58.845Z,16.08
2023-02-13T01:24:22.208Z,16.23
2023-02-13T01:26:46.053Z,20.40
2023-02-13T01:29:09.728Z,19.13
2023-02-13T01:31:33.158Z,20.42
2023-02-13T01:33:58.781Z,20.27
2023-02-13T01:36:23.476Z,19.92
2023-02-13T01:38:46.787Z,21.58
2023-02-13T01:41:10.458Z,21.77
2023-02-13T01:43:53.482Z,20.05
2023-02-13T01:46:22.463Z,19.13
2023-02-13T01:48:46.348Z,21.33
2023-02-13T01:51:14.783Z,19.85
2023-02-13T01:53:45.938Z,20.27
2023-02-13T01:56:15.854Z,19.38
2023-02-13T01:58:41.403Z,19.52
2023-02-13T02:01:05.538Z,19.92
2023-02-13T02:03:34.126Z,21.05
2023-02-13T02:06:03.812Z,21.08
2023-02-13T02:08:28.367Z,22.13
2023-02-13T02:10:53.557Z,21.13
2023-02-13T02:13:19.905Z,21.27
2023-02-13T02:15:44.321Z,22.77
2023-02-13T02:18:15.468Z,22.88
2023-02-13T02:21:20.746Z,21.63
2023-02-13T02:24:18.998Z,21.35
2023-02-13T02:27:18.527Z,19.98
2023-02-13T02:30:27.655Z,18.05
2023-02-13T02:33:08.829Z,20.55
2023-02-13T02:35:44.691Z,21.95
2023-02-13T02:38:23.626Z,21.35
2023-02-13T02:41:01.907Z,18.98
2023-02-13T02:43:45.814Z,21.83
2023-02-13T02:46:18.888Z,20.05
2023-02-13T02:49:09.385Z,20.30
2023-02-13T02:51:47.707Z,19.73
2023-02-13T02:54:34.279Z,18.02
2023-02-13T02:57:02.360Z,19.52
2023-02-13T02:59:46.007Z,20.35
2023-02-13T03:02:34.597Z,21.75
2023-02-13T03:05:16.496Z,18.52
2023-02-13T03:07:39.888Z,16.92
2023-02-13T03:10:23.530Z,19.25
2023-02-13T03:13:10.838Z,17.25
2023-02-13T03:15:57.571Z,18.77
2023-02-13T03:18:38.341Z,20.98
2023-02-13T03:21:35.484Z,20.30
2023-02-13T03:24:06.460Z,19.13
2023-02-13T03:26:50.144Z,20.50
2023-02-13T03:29:42.821Z,21.70
2023-02-13T03:32:19.183Z,19.90
2023-02-13T03:35:11.373Z,18.25
2023-02-13T03:37:56.110Z,17.55
2023-02-13T03:40:24.885Z,17.20
2023-02-13T03:42:54.844Z,17.08
2023-02-13T03:45:41.748Z,19.63
2023-02-13T03:48:30.708Z,18.70
2023-02-13T03:50:53.156Z,19.38
2023-02-13T03:53:18.230Z,19.48
2023-02-13T03:56:03.930Z,18.05
2023-02-13T03:58:48.538Z,19.33
2023-02-13T04:01:16.907Z,17.00
2023-02-13T04:03:49.630Z,20.77
2023-02-13T04:06:18.063Z,20.23
2023-02-13T04:08:42.952Z,18.52
2023-02-13T04:11:13.730Z,17.83
2023-02-13T04:13:43.272Z,19.27
2023-02-13T04:16:12.749Z,19.05
2023-02-13T04:18:37.207Z,17.75
2023-02-13T04:21:04.079Z,17.88
2023-02-13T04:23:27.451Z,18.27
2023-02-13T04:25:55.476Z,20.05
2023-02-13T04:28:18.912Z,18.88
2023-02-13T04:30:42.443Z,17.67
2023-02-13T04:33:05.917Z,18.02
2023-02-13T04:35:29.625Z,19.45
2023-02-13T04:37:53.414Z,18.50
2023-02-13T04:40:16.886Z,18.20
2023-02-13T04:42:41.604Z,21.40
2023-02-13T04:45:05.651Z,18.38
2023-02-13T04:47:29.030Z,17.90
2023-02-13T04:49:52.367Z,19.38
2023-02-13T04:52:16.356Z,20.13
2023-02-13T04:54:39.648Z,20.52
2023-02-13T04:57:02.973Z,20.83
2023-02-13T04:59:27.603Z,19.85
2023-02-13T05:01:51.320Z,20.20
2023-02-13T05:04:16.351Z,21.42
2023-02-13T05:06:39.723Z,20.23
2023-02-13T05:09:03.035Z,18.80
2023-02-13T05:11:26.604Z,16.65
2023-02-13T05:13:49.894Z,19.48
2023-02-13T05:16:14.725Z,19.33
2023-02-13T05:18:38.003Z,18.02
2023-02-13T05:21:19.077Z,17.25
2023-02-13T05:23:42.482Z,20.80
2023-02-13T05:26:06.008Z,20.00
2023-02-13T05:28:46.902Z,19.77
2023-02-13T05:31:10.358Z,20.75
2023-02-13T05:33:35.109Z,19.77
2023-02-13T05:35:58.386Z,20.45
2023-02-13T05:38:21.636Z,21.10
2023-02-13T05:40:45.166Z,20.73
2023-02-13T05:43:08.407Z,21.20
2023-02-13T05:45:31.699Z,22.42
2023-02-13T05:47:55.108Z,19.85
2023-02-13T05:50:20.173Z,22.67
2023-02-13T05:52:43.445Z,21.45
2023-02-13T05:55:08.187Z,21.08
2023-02-13T05:57:32.427Z,21.65
2023-02-13T05:59:57.129Z,19.10
2023-02-13T06:02:20.379Z,22.60
2023-02-13T06:04:43.679Z,20.08
2023-02-13T06:07:08.552Z,20.30
2023-02-13T06:09:31.934Z,20.88
2023-02-13T06:11:55.197Z,20.13
2023-02-13T06:14:18.579Z,20.27
2023-02-13T06:16:42.186Z,21.67
2023-02-13T06:19:05.520Z,21.35
2023-02-13T06:21:29.016Z,23.27
2023-02-13T06:23:53.801Z,22.27
2023-02-13T06:26:17.066Z,24.75
2023-02-13T06:28:40.506Z,22.10
2023-02-13T06:31:03.929Z,22.23
2023-02-13T06:33:27.409Z,23.20
2023-02-13T06:35:50.761Z,21.45
2023-02-13T06:38:13.994Z,23.98
2023-02-13T06:40:38.657Z,23.17
2023-02-13T06:43:02.021Z,24.88
2023-02-13T06:45:25.295Z,24.52
2023-02-13T06:47:50.294Z,25.00
2023-02-13T06:50:15.828Z,24.50
2023-02-13T06:52:39.211Z,26.55
2023-02-13T06:55:02.541Z,22.25
2023-02-13T06:57:27.298Z,24.70
2023-02-13T06:59:50.583Z,25.25
2023-02-13T07:02:14.585Z,24.45
2023-02-13T07:04:38.336Z,24.48
2023-02-13T07:07:01.664Z,25.65
2023-02-13T07:09:25.269Z,24.63
2023-02-13T07:11:48.540Z,24.70
2023-02-13T07:14:13.259Z,25.67
2023-02-13T07:16:37.441Z,26.20
2023-02-13T07:19:00.800Z,24.42
2023-02-13T07:21:24.046Z,25.17
2023-02-13T07:23:47.359Z,26.08
2023-02-13T07:26:12.073Z,23.08
2023-02-13T07:28:35.452Z,26.98
2023-02-13T07:31:05.688Z,25.45
2023-02-13T07:33:29.109Z,25.38
2023-02-13T07:35:53.813Z,23.92
2023-02-13T07:38:18.395Z,26.35
2023-02-13T07:40:41.659Z,23.42
2023-02-13T07:43:05.025Z,26.92
2023-02-13T07:45:28.406Z,24.55
2023-02-13T07:47:53.082Z,25.48
2023-02-13T07:50:17.779Z,23.98
2023-02-13T07:52:41.105Z,23.40
2023-02-13T07:55:04.518Z,24.52
2023-02-13T07:57:27.810Z,26.08
2023-02-13T07:59:51.551Z,24.52
2023-02-13T08:02:16.408Z,23.77
2023-02-13T08:04:41.187Z,26.02
2023-02-13T08:07:04.573Z,22.90
2023-02-13T08:09:45.414Z,24.27
2023-02-13T08:12:11.521Z,24.55
2023-02-13T08:14:35.401Z,22.45
2023-02-13T08:17:01.467Z,23.77
2023-02-13T08:19:24.768Z,23.70
2023-02-13T08:21:49.457Z,23.33
2023-02-13T08:24:13.157Z,23.02
2023-02-13T08:26:36.849Z,24.45
2023-02-13T08:29:00.432Z,21.63
2023-02-13T08:31:24.080Z,21.30
2023-02-13T08:33:47.362Z,22.45
2023-02-13T08:36:11.220Z,22.08
2023-02-13T08:38:36.231Z,21.00
2023-02-13T08:40:59.722Z,22.30
2023-02-13T08:43:23.205Z,20.23
2023-02-13T08:45:46.551Z,22.42
2023-02-13T08:48:09.962Z,21.27
2023-02-13T08:50:35.080Z,20.40
2023-02-13T08:53:00.821Z,20.48
2023-02-13T08:55:25.850Z,21.50
2023-02-13T08:57:49.191Z,19.65
2023-02-13T09:00:13.737Z,19.13
2023-02-13T09:02:37.322Z,21.02
2023-02-13T09:05:00.840Z,20.02
2023-02-13T09:07:24.471Z,21.77
2023-02-13T09:09:47.778Z,18.50
2023-02-13T09:12:13.551Z,19.75
2023-02-13T09:14:39.211Z,19.45
2023-02-13T09:17:03.041Z,19.48
2023-02-13T09:19:26.394Z,19.92
2023-02-13T09:21:50.145Z,21.52
2023-02-13T09:24:13.572Z,19.00
2023-02-13T09:26:37.219Z,19.83
2023-02-13T09:29:01.952Z,20.17
2023-02-13T09:31:26.718Z,19.23
2023-02-13T09:33:51.747Z,17.92
2023-02-13T09:36:20.123Z,19.42
2023-02-13T09:38:44.997Z,19.58
2023-02-13T09:41:12.518Z,18.25
2023-02-13T09:43:43.974Z,17.63
2023-02-13T09:46:14.364Z,18.80
2023-02-13T09:48:41.937Z,18.45
2023-02-13T09:51:07.007Z,20.77
2023-02-13T09:53:33.402Z,19.15
2023-02-13T09:56:07.179Z,16.83
2023-02-13T09:58:45.623Z,18.27
2023-02-13T10:01:21.170Z,17.92
2023-02-13T10:03:50.054Z,18.17
2023-02-13T10:06:22.137Z,18.30
2023-02-13T10:09:02.990Z,18.40
2023-02-13T10:12:02.346Z,17.65
2023-02-13T10:14:33.769Z,17.52
2023-02-13T10:17:03.036Z,20.00
2023-02-13T10:19:37.228Z,16.75
2023-02-13T10:22:06.661Z,17.30
2023-02-13T10:24:36.593Z,20.55
2023-02-13T10:27:06.465Z,18.00
2023-02-13T10:29:58.786Z,20.40
2023-02-13T10:32:31.314Z,15.85
2023-02-13T10:34:56.484Z,16.75
2023-02-13T10:37:23.047Z,17.95
2023-02-13T10:39:51.434Z,14.52
2023-02-13T10:42:26.083Z,17.77
2023-02-13T10:45:06.503Z,15.70
2023-02-13T10:47:59.223Z,19.50
2023-02-13T10:50:29.392Z,18.27
2023-02-13T10:53:05.245Z,15.88
2023-02-13T10:55:58.433Z,17.77
2023-02-13T10:58:31.267Z,17.90
2023-02-13T11:01:01.412Z,17.15
2023-02-13T11:03:28.798Z,16.52
2023-02-13T11:05:53.800Z,16.20
2023-02-13T11:08:22.433Z,14.85
2023-02-13T11:10:45.733Z,18.73
2023-02-13T11:13:19.470Z,16.08
2023-02-13T11:15:42.937Z,15.88
2023-02-13T11:18:19.313Z,17.08
2023-02-13T11:20:48.151Z,14.30
2023-02-13T11:23:35.461Z,14.60
2023-02-13T11:26:01.944Z,16.10
2023-02-13T11:28:25.588Z,16.05
2023-02-13T11:30:49.257Z,16.08
2023-02-13T11:33:25.972Z,15.77
2023-02-13T11:35:50.931Z,17.35
2023-02-13T11:38:24.025Z,14.65
2023-02-13T11:40:50.540Z,16.38
2023-02-13T11:43:21.361Z,15.57
2023-02-13T11:45:45.200Z,14.95
2023-02-13T11:48:21.364Z,16.80
2023-02-13T11:50:46.248Z,14.80
2023-02-13T11:53:21.146Z,14.35
2023-02-13T11:56:05.612Z,14.38
2023-02-13T11:58:31.282Z,17.35
2023-02-13T12:01:12.056Z,14.32
2023-02-13T12:03:35.391Z,14.02
2023-02-13T12:06:05.969Z,13.68
2023-02-13T12:08:31.565Z,14.25
2023-02-13T12:10:57.523Z,16.13
2023-02-13T12:13:29.849Z,13.10
2023-02-13T12:16:01.273Z,15.30
2023-02-13T12:18:35.111Z,16.63
2023-02-13T12:21:07.254Z,12.00
2023-02-13T12:23:41.738Z,11.68
2023-02-13T12:26:22.573Z,15.65
2023-02-13T12:29:28.704Z,13.80
2023-02-13T12:32:06.215Z,14.75
2023-02-13T12:35:09.394Z,12.73
2023-02-13T12:37:57.911Z,13.05
2023-02-13T12:40:40.972Z,12.77
2023-02-13T12:43:37.535Z,11.95
2023-02-13T12:46:06.445Z,12.73
2023-02-13T12:48:41.811Z,12.35
2023-02-13T12:51:25.278Z,12.70
2023-02-13T12:54:14.185Z,13.52
2023-02-13T12:57:04.827Z,12.05
2023-02-13T12:59:40.920Z,14.73
2023-02-13T13:02:30.364Z,10.40
2023-02-13T13:05:13.613Z,12.05
2023-02-13T13:07:57.269Z,12.15
2023-02-13T13:10:36.985Z,11.38
2023-02-13T13:13:11.831Z,14.95
2023-02-13T13:15:43.959Z,12.45
2023-02-13T13:18:28.438Z,13.18
2023-02-13T13:21:07.702Z,11.35
2023-02-13T13:23:37.427Z,9.45
2023-02-13T13:26:13.731Z,10.88
2023-02-13T13:28:42.943Z,12.60
2023-02-13T13:31:07.193Z,11.00
2023-02-13T13:33:30.770Z,11.13
2023-02-13T13:36:02.970Z,13.02
2023-02-13T13:38:40.322Z,12.65
2023-02-13T13:41:13.871Z,12.27
2023-02-13T13:43:55.393Z,12.02
2023-02-13T13:46:30.269Z,14.98
2023-02-13T13:49:15.972Z,10.95
2023-02-13T13:51:39.482Z,11.57
2023-02-13T13:54:27.240Z,11.32
2023-02-13T13:57:12.446Z,11.00
2023-02-13T14:00:25.201Z,14.98
2023-02-13T14:02:50.835Z,13.55
2023-02-13T14:05:30.259Z,11.05
2023-02-13T14:07:56.556Z,12.15
2023-02-13T14:11:04.710Z,10.85
2023-02-13T14:13:34.238Z,12.82
2023-02-13T14:15:59.065Z,10.48
2023-02-13T14:18:24.241Z,9.48
2023-02-13T14:20:53.930Z,11.55
2023-02-13T14:23:29.486Z,10.93
2023-02-13T14:26:11.517Z,8.93
2023-02-13T14:28:34.882Z,8.30
2023-02-13T14:31:16.884Z,9.35
2023-02-13T14:33:40.338Z,9.63
2023-02-13T14:36:08.667Z,9.90
2023-02-13T14:38:32.455Z,7.97
2023-02-13T14:40:56.951Z,11.32
2023-02-13T14:43:39.049Z,7.90
2023-02-13T14:46:20.729Z,9.60
2023-02-13T14:48:50.483Z,10.50
2023-02-13T14:51:28.771Z,9.23
2023-02-13T14:53:56.705Z,9.18
2023-02-13T14:56:23.604Z,11.80
2023-02-13T14:58:52.968Z,9.00
2023-02-13T15:01:27.689Z,10.38
2023-02-13T15:03:59.969Z,9.48
2023-02-13T15:06:28.963Z,9.30
2023-02-13T15:08:54.504Z,8.38
2023-02-13T15:11:37.633Z,11.95
2023-02-13T15:14:16.745Z,9.05
2023-02-13T15:16:41.425Z,9.18
2023-02-13T15:19:04.960Z,7.65
2023-02-13T15:21:33.157Z,12.15
2023-02-13T15:23:58.052Z,9.88
2023-02-13T15:26:24.676Z,9.35
2023-02-13T15:29:01.521Z,9.27
2023-02-13T15:31:26.163Z,9.10
2023-02-13T15:33:53.569Z,10.88
2023-02-13T15:36:20.826Z,10.70
2023-02-13T15:38:44.123Z,9.93
2023-02-13T15:41:11.589Z,12.50
2023-02-13T15:43:38.364Z,9.45
2023-02-13T15:46:06.147Z,8.43
2023-02-13T15:48:31.227Z,11.13
2023-02-13T15:50:56.514Z,9.50
2023-02-13T15:53:20.550Z,9.68
2023-02-13T15:55:43.917Z,8.00
2023-02-13T15:58:08.012Z,12.90
2023-02-13T16:00:34.476Z,8.75
2023-02-13T16:03:01.385Z,8.95
2023-02-13T16:05:39.610Z,9.10
2023-02-13T16:08:20.308Z,9.23
2023-02-13T16:10:43.633Z,6.72
2023-02-13T16:13:08.963Z,7.40
2023-02-13T16:15:35.777Z,8.48
2023-02-13T16:18:00.218Z,9.63
2023-02-13T16:20:26.500Z,7.38
2023-02-13T16:22:53.018Z,8.40
2023-02-13T16:25:26.513Z,7.88
2023-02-13T16:27:52.398Z,7.40
2023-02-13T16:30:33.439Z,7.93
2023-02-13T16:33:29.454Z,9.13
2023-02-13T16:35:56.552Z,8.05
2023-02-13T16:38:29.887Z,9.38
2023-02-13T16:40:56.293Z,8.48
2023-02-13T16:43:43.086Z,7.25
2023-02-13T16:46:26.864Z,9.02
2023-02-13T16:49:27.611Z,12.05
2023-02-13T16:51:56.452Z,11.23
2023-02-13T16:54:26.566Z,6.63
2023-02-13T16:56:55.967Z,7.00
2023-02-13T16:59:30.616Z,6.68
2023-02-13T17:02:28.196Z,8.10
2023-02-13T17:04:54.992Z,8.75
2023-02-13T17:07:22.499Z,7.53
2023-02-13T17:09:46.313Z,10.73
2023-02-13T17:12:17.624Z,9.70
2023-02-13T17:14:41.097Z,11.38
2023-02-13T17:17:07.137Z,7.50
2023-02-13T17:19:30.518Z,11.18
2023-02-13T17:21:55.783Z,11.43
2023-02-13T17:24:19.645Z,9.60
2023-02-13T17:26:43.010Z,11.85
2023-02-13T17:29:07.706Z,9.77
2023-02-13T17:31:31.104Z,10.63
2023-02-13T17:33:54.631Z,11.10
2023-02-13T17:36:17.909Z,8.35
2023-02-13T17:38:41.566Z,12.55
2023-02-13T17:41:05.049Z,9.48
2023-02-13T17:43:29.999Z,8.32
2023-02-13T17:45:54.702Z,9.65
2023-02-13T17:48:18.585Z,11.85
2023-02-13T17:50:42.297Z,10.90
2023-02-13T17:53:08.695Z,9.18
2023-02-13T17:55:33.691Z,14.15
2023-02-13T17:57:58.868Z,12.15
2023-02-13T18:00:23.829Z,13.63
2023-02-13T18:02:49.615Z,13.38
2023-02-13T18:05:13.325Z,17.48
2023-02-13T18:07:39.404Z,10.93
2023-02-13T18:10:02.779Z,15.60
2023-02-13T18:12:26.464Z,12.90
2023-02-13T18:14:50.257Z,10.20
2023-02-13T18:17:14.087Z,8.80
2023-02-13T18:19:39.291Z,14.23
2023-02-13T18:22:02.704Z,12.50
2023-02-13T18:24:30.895Z,15.38
2023-02-13T18:26:56.032Z,10.35
2023-02-13T18:29:19.606Z,15.60
2023-02-13T18:31:43.125Z,13.82
2023-02-13T18:34:06.419Z,14.35
2023-02-13T18:36:31.285Z,16.45
2023-02-13T18:38:54.714Z,16.05
2023-02-13T18:41:18.088Z,15.40
2023-02-13T18:43:42.317Z,10.32
2023-02-13T18:46:06.098Z,16.73
2023-02-13T18:48:30.885Z,17.48
2023-02-13T18:50:54.310Z,19.63
2023-02-13T18:53:18.989Z,13.05
2023-02-13T18:55:43.473Z,16.02
2023-02-13T18:58:07.181Z,15.00
2023-02-13T19:00:30.845Z,15.70
2023-02-13T19:02:54.721Z,15.68
2023-02-13T19:05:18.288Z,17.85
2023-02-13T19:07:41.786Z,14.63
2023-02-13T19:10:07.771Z,17.92
2023-02-13T19:12:31.604Z,21.30
2023-02-13T19:14:55.224Z,15.48
2023-02-13T19:17:18.670Z,17.92
2023-02-13T19:19:41.992Z,17.35
2023-02-13T19:22:05.637Z,23.35
2023-02-13T19:24:29.354Z,17.92
2023-02-13T19:26:54.432Z,17.13
2023-02-13T19:29:17.829Z,18.10
2023-02-13T19:31:41.336Z,22.10
2023-02-13T19:34:06.602Z,23.80
2023-02-13T19:36:31.066Z,23.48
2023-02-13T19:38:57.187Z,27.00
2023-02-13T19:41:20.626Z,24.33
2023-02-13T19:43:50.842Z,27.88
2023-02-13T19:46:14.947Z,28.85
2023-02-13T19:48:38.441Z,32.40
2023-02-13T19:51:06.990Z,34.22
2023-02-13T19:53:30.441Z,35.40
2023-02-13T19:56:00.730Z,38.45
2023-02-13T19:58:24.272Z,38.10
2023-02-13T20:00:49.164Z,38.83
2023-02-13T20:03:12.588Z,40.95
2023-02-13T20:05:41.170Z,39.15
2023-02-13T20:08:04.726Z,35.60
2023-02-13T20:10:28.108Z,35.83
2023-02-13T20:12:54.376Z,27.88
2023-02-13T20:15:17.877Z,23.38
2023-02-13T20:17:42.852Z,29.88
2023-02-13T20:20:08.198Z,27.10
2023-02-13T20:22:32.020Z,22.52
2023-02-13T20:24:55.726Z,24.10
2023-02-13T20:27:19.214Z,18.83
2023-02-13T20:29:43.238Z,23.02
2023-02-13T20:32:07.098Z,19.23
2023-02-13T20:34:44.410Z,18.92
2023-02-13T20:37:16.370Z,20.60
2023-02-13T20:39:39.790Z,20.80
2023-02-13T20:42:03.136Z,17.45
2023-02-13T20:44:28.163Z,21.98
2023-02-13T20:46:52.029Z,21.55
2023-02-13T20:49:18.834Z,21.73
2023-02-13T20:51:43.511Z,19.92
2023-02-13T20:54:06.959Z,23.00
2023-02-13T20:56:30.445Z,18.67
2023-02-13T20:58:56.605Z,16.55
2023-02-13T21:01:23.546Z,18.08
2023-02-13T21:03:53.406Z,19.25
2023-02-13T21:06:16.785Z,19.95
2023-02-13T21:08:44.499Z,18.38
2023-02-13T21:11:09.330Z,18.48
2023-02-13T21:13:33.786Z,16.50
2023-02-13T21:16:06.297Z,22.75
2023-02-13T21:18:29.760Z,21.90
2023-02-13T21:20:53.168Z,19.17
2023-02-13T21:23:16.420Z,15.23
2023-02-13T21:25:41.028Z,19.90
2023-02-13T21:28:04.331Z,17.40
2023-02-13T21:30:27.790Z,15.18
2023-02-13T21:32:51.061Z,10.30
2023-02-13T21:35:14.521Z,13.88
2023-02-13T21:37:37.786Z,13.88
2023-02-13T21:40:01.459Z,12.90
2023-02-13T21:42:26.380Z,11.35
2023-02-13T21:44:49.690Z,11.90
2023-02-13T21:47:13.182Z,12.55
2023-02-13T21:49:36.822Z,14.27
2023-02-13T21:52:00.201Z,12.65
2023-02-13T21:54:23.595Z,11.07
2023-02-13T21:56:46.982Z,12.63
2023-02-13T21:59:15.316Z,12.65
2023-02-13T22:01:41.253Z,13.13
2023-02-13T22:04:07.994Z,12.68
2023-02-13T22:06:33.994Z,8.30
2023-02-13T22:08:58.556Z,11.35
2023-02-13T22:11:21.820Z,11.48
2023-02-13T22:13:45.111Z,9.90
2023-02-13T22:16:12.832Z,11.88
2023-02-13T22:18:38.277Z,10.48
2023-02-13T22:21:06.504Z,10.88
2023-02-13T22:23:29.850Z,15.43
2023-02-13T22:25:53.105Z,12.40
2023-02-13T22:28:16.670Z,11.88
2023-02-13T22:30:40.229Z,9.93
2023-02-13T22:33:05.245Z,10.18
2023-02-13T22:35:28.496Z,10.15
2023-02-13T22:37:51.703Z,9.48
2023-02-13T22:40:15.351Z,7.68
2023-02-13T22:42:38.658Z,9.27
2023-02-13T22:45:02.199Z,9.38
2023-02-13T22:47:25.504Z,8.40
2023-02-13T22:49:50.558Z,8.20
2023-02-13T22:52:14.298Z,10.20
2023-02-13T22:54:37.864Z,9.38
2023-02-13T22:57:01.130Z,8.07
2023-02-13T22:59:24.908Z,9.25
2023-02-13T23:01:48.452Z,11.80
2023-02-13T23:04:12.589Z,11.02
2023-02-13T23:06:37.289Z,11.13
2023-02-13T23:09:00.527Z,9.60
2023-02-13T23:11:44.419Z,9.75
2023-02-13T23:14:07.761Z,14.35
2023-02-13T23:16:51.699Z,10.82
2023-02-13T23:19:13.975Z,12.45
2023-02-13T23:21:39.152Z,11.60
2023-02-13T23:24:02.508Z,12.27
2023-02-13T23:26:25.906Z,12.63
2023-02-13T23:28:49.165Z,11.13
2023-02-13T23:31:12.584Z,11.95
2023-02-13T23:33:36.055Z,13.95
2023-02-13T23:35:59.462Z,11.48
2023-02-13T23:38:24.901Z,13.90
2023-02-13T23:40:48.349Z,13.57
2023-02-13T23:43:11.688Z,9.90
2023-02-13T23:45:35.015Z,14.20
2023-02-13T23:47:58.400Z,12.23
2023-02-13T23:50:21.771Z,12.40
2023-02-13T23:52:45.084Z,15.07
2023-02-13T23:55:09.898Z,10.90
2023-02-13T23:57:33.149Z,10.85
2023-02-13T23:59:56.427Z,14.07
